createdAt,value
2023-01-22T00:03:05.938Z,23.52
2023-01-22T00:08:06.378Z,22.48
2023-01-22T00:13:03.862Z,23.13
2023-01-22T00:18:01.302Z,19.65
2023-01-22T00:22:58.570Z,29.90
2023-01-22T00:27:55.887Z,28.15
2023-01-22T00:32:53.284Z,25.33
2023-01-22T00:37:50.757Z,24.83
2023-01-22T00:42:48.015Z,22.15
2023-01-22T00:47:45.869Z,22.63
2023-01-22T00:52:43.354Z,19.63
2023-01-22T00:57:40.580Z,19.85
2023-01-22T01:02:58.749Z,19.98
2023-01-22T01:07:56.085Z,20.52
2023-01-22T01:12:53.671Z,22.65
2023-01-22T01:17:51.260Z,23.88
2023-01-22T01:22:48.767Z,26.05
2023-01-22T01:27:46.125Z,21.88
2023-01-22T01:32:43.529Z,18.75
2023-01-22T01:37:43.609Z,22.58
2023-01-22T01:42:47.236Z,23.20
2023-01-22T01:47:45.328Z,27.35
2023-01-22T01:52:42.619Z,24.50
2023-01-22T01:57:41.657Z,15.15
2023-01-22T02:02:39.048Z,12.30
2023-01-22T02:07:36.624Z,14.18
2023-01-22T02:12:35.031Z,13.60
2023-01-22T02:17:32.287Z,17.02
2023-01-22T02:22:36.407Z,16.70
2023-01-22T02:27:33.721Z,14.15
2023-01-22T02:32:31.056Z,15.70
2023-01-22T02:37:28.493Z,15.00
2023-01-22T02:42:28.225Z,14.90
2023-01-22T02:47:25.626Z,20.30
2023-01-22T02:52:22.927Z,17.48
2023-01-22T02:57:23.152Z,22.52
2023-01-22T03:02:20.842Z,15.38
2023-01-22T03:07:20.876Z,12.15
2023-01-22T03:17:34.017Z,10.82
2023-01-22T03:22:31.473Z,13.73
2023-01-22T03:27:31.328Z,15.80
2023-01-22T03:32:28.450Z,11.27
2023-01-22T03:37:25.763Z,19.50
2023-01-22T03:42:25.333Z,19.52
2023-01-22T03:47:25.526Z,12.73
2023-01-22T03:57:19.902Z,16.02
2023-01-22T04:02:18.019Z,18.00
2023-01-22T04:07:15.727Z,16.20
2023-01-22T04:12:13.058Z,13.65
2023-01-22T04:17:13.928Z,13.57
2023-01-22T04:22:11.169Z,14.68
2023-01-22T04:27:11.544Z,10.77
2023-01-22T04:32:11.864Z,12.13
2023-01-22T04:37:16.272Z,12.30
2023-01-22T04:42:22.871Z,12.07
2023-01-22T04:47:20.723Z,13.70
2023-01-22T04:52:19.303Z,13.63
2023-01-22T04:57:23.380Z,10.55
2023-01-22T05:02:26.307Z,10.00
2023-01-22T05:07:27.668Z,8.60
2023-01-22T05:12:28.740Z,7.80
2023-01-22T05:17:27.614Z,7.00
2023-01-22T05:22:26.605Z,7.88
2023-01-22T05:27:23.845Z,9.00
2023-01-22T05:32:27.377Z,6.85
2023-01-22T05:37:27.662Z,10.13
2023-01-22T05:42:28.016Z,11.13
2023-01-22T05:47:28.230Z,15.40
2023-01-22T05:52:25.567Z,10.15
2023-01-22T05:57:35.361Z,9.80
2023-01-22T06:02:35.981Z,16.67
2023-01-22T06:07:33.478Z,12.50
2023-01-22T06:12:31.489Z,12.95
2023-01-22T06:17:28.815Z,15.02
2023-01-22T06:22:29.839Z,19.58
2023-01-22T06:27:33.796Z,17.23
2023-01-22T06:32:33.674Z,18.98
2023-01-22T06:42:37.473Z,14.02
2023-01-22T06:47:34.842Z,13.10
2023-01-22T06:52:37.964Z,16.50
2023-01-22T06:57:44.217Z,13.82
2023-01-22T07:02:50.195Z,15.70
2023-01-22T07:07:54.466Z,16.05
2023-01-22T07:12:56.331Z,14.18
2023-01-22T07:18:24.091Z,18.30
2023-01-22T07:23:31.802Z,20.55
2023-01-22T07:28:52.722Z,16.45
2023-01-22T07:34:02.663Z,14.95
2023-01-22T07:39:18.810Z,14.32
2023-01-22T07:44:17.776Z,18.38
2023-01-22T07:49:32.996Z,22.40
2023-01-22T07:54:36.730Z,23.80
2023-01-22T07:59:40.742Z,16.90
2023-01-22T08:04:43.461Z,15.68
2023-01-22T08:15:07.785Z,16.83
2023-01-22T08:20:10.825Z,14.13
2023-01-22T08:25:26.753Z,14.30
2023-01-22T08:30:45.505Z,17.60
2023-01-22T08:36:06.004Z,19.08
2023-01-22T08:41:18.765Z,17.05
2023-01-22T08:52:04.682Z,19.17
2023-01-22T08:57:35.782Z,22.95
2023-01-22T09:03:12.840Z,21.50
2023-01-22T09:08:59.941Z,18.50
2023-01-22T09:13:58.260Z,17.48
2023-01-22T09:36:48.580Z,18.13
2023-01-22T09:47:46.799Z,17.00
2023-01-22T09:53:20.947Z,12.93
2023-01-22T09:58:42.765Z,14.82
2023-01-22T10:16:22.715Z,13.45
2023-01-22T10:27:45.626Z,14.93
2023-01-22T10:33:51.664Z,51.20
2023-01-22T10:56:42.749Z,10.90
2023-01-22T11:07:39.852Z,15.80
2023-01-22T11:24:53.713Z,14.00
2023-01-22T11:31:01.370Z,12.18
2023-01-22T11:36:26.055Z,16.27
2023-01-22T11:42:27.748Z,11.82
2023-01-22T11:47:58.854Z,16.50
2023-01-22T11:53:51.783Z,12.15
2023-01-22T11:59:50.635Z,16.55
2023-01-22T12:05:40.727Z,10.68
2023-01-22T12:11:36.542Z,11.18
2023-01-22T12:17:07.728Z,8.95
2023-01-22T12:22:39.420Z,12.05
2023-01-22T12:28:07.743Z,11.25
2023-01-22T12:39:06.266Z,11.00
2023-01-22T12:44:46.700Z,11.57
2023-01-22T12:56:00.689Z,16.55
2023-01-22T13:01:46.463Z,10.50
2023-01-22T13:13:13.560Z,11.70
2023-01-22T13:24:23.175Z,13.93
2023-01-22T13:29:43.706Z,10.23
2023-01-22T13:35:20.795Z,9.15
2023-01-22T13:40:51.643Z,11.23
2023-01-22T13:46:45.890Z,8.73
2023-01-22T13:52:20.605Z,14.65
2023-01-22T13:57:49.423Z,14.68
2023-01-22T14:02:47.455Z,10.80
2023-01-22T14:08:30.936Z,9.00
2023-01-22T14:13:48.702Z,9.38
2023-01-22T14:25:02.359Z,9.73
2023-01-22T14:36:20.643Z,10.18
2023-01-22T14:41:39.528Z,19.20
2023-01-22T14:47:39.621Z,8.45
2023-01-22T14:59:30.842Z,8.10
2023-01-22T15:04:52.343Z,6.97
2023-01-22T15:10:28.939Z,14.30
2023-01-22T15:28:07.729Z,7.60
2023-01-22T15:33:44.640Z,13.43
2023-01-22T15:38:57.240Z,12.73
2023-01-22T16:02:04.665Z,14.43
2023-01-22T16:07:27.042Z,17.08
2023-01-22T16:12:45.692Z,17.48
2023-01-22T16:18:14.694Z,22.92
2023-01-22T16:23:11.996Z,18.10
2023-01-22T16:28:09.525Z,19.35
2023-01-22T16:33:22.098Z,15.57
2023-01-22T16:38:22.639Z,16.52
2023-01-22T16:43:20.193Z,27.35
2023-01-22T16:48:17.581Z,21.38
2023-01-22T16:53:14.779Z,25.23
2023-01-22T16:58:17.943Z,29.60
2023-01-22T17:03:15.822Z,19.50
2023-01-22T17:08:16.319Z,31.05
2023-01-22T17:13:17.757Z,40.33
2023-01-22T17:18:15.108Z,21.23
2023-01-22T17:23:27.489Z,25.55
2023-01-22T17:28:30.848Z,21.60
2023-01-22T17:33:32.431Z,33.42
2023-01-22T17:38:37.435Z,25.20
2023-01-22T17:43:39.593Z,24.55
2023-01-22T17:48:38.393Z,23.45
2023-01-22T17:53:40.878Z,25.42
2023-01-22T17:58:40.722Z,23.65
2023-01-22T18:03:44.622Z,20.05
2023-01-22T18:08:42.658Z,21.83
2023-01-22T18:13:45.039Z,30.83
2023-01-22T18:18:48.430Z,22.48
2023-01-22T18:23:49.406Z,30.35
2023-01-22T18:29:10.975Z,24.08
2023-01-22T18:34:14.351Z,27.63
2023-01-22T18:39:31.312Z,24.92
2023-01-22T18:44:29.360Z,35.65
2023-01-22T18:49:28.512Z,33.95
2023-01-22T18:54:33.116Z,33.37
2023-01-22T18:59:37.411Z,29.83
2023-01-22T19:04:38.101Z,27.80
2023-01-22T19:09:50.717Z,30.95
2023-01-22T19:15:01.684Z,35.97
2023-01-22T19:20:01.595Z,36.15
2023-01-22T19:24:59.555Z,39.17
2023-01-22T19:30:00.797Z,29.08
2023-01-22T19:35:05.817Z,31.83
2023-01-22T19:40:03.774Z,30.75
2023-01-22T19:45:01.070Z,30.73
2023-01-22T19:50:01.199Z,31.75
2023-01-22T19:55:04.497Z,29.80
2023-01-22T20:00:06.170Z,27.15
2023-01-22T20:05:03.739Z,32.17
2023-01-22T20:10:05.471Z,32.03
2023-01-22T20:15:03.244Z,29.40
2023-01-22T20:20:07.295Z,26.88
2023-01-22T20:25:11.559Z,38.17
2023-01-22T20:30:18.591Z,20.42
2023-01-22T20:35:19.538Z,24.25
2023-01-22T20:40:17.313Z,29.00
2023-01-22T20:45:14.591Z,33.65
2023-01-22T20:50:12.159Z,35.40
2023-01-22T20:55:15.719Z,32.35
2023-01-22T21:00:13.554Z,35.78
2023-01-22T21:05:10.895Z,30.83
2023-01-22T21:10:11.628Z,26.38
2023-01-22T21:15:09.508Z,29.77
2023-01-22T21:20:10.700Z,31.33
2023-01-22T21:25:08.482Z,28.85
2023-01-22T21:30:06.626Z,37.50
2023-01-22T21:35:04.321Z,34.25
2023-01-22T21:40:01.586Z,35.33
2023-01-22T21:45:17.578Z,32.55
2023-01-22T21:50:15.133Z,29.60
2023-01-22T21:55:15.968Z,28.95
2023-01-22T22:00:14.543Z,36.85
2023-01-22T22:05:15.120Z,32.92
2023-01-22T22:10:13.002Z,28.20
2023-01-22T22:15:13.533Z,34.90
2023-01-22T22:20:14.682Z,35.17
2023-01-22T22:25:11.982Z,30.42
2023-01-22T22:30:13.101Z,28.63
2023-01-22T22:35:13.514Z,27.40
2023-01-22T22:40:11.521Z,29.30
2023-01-22T22:45:09.257Z,31.95
2023-01-22T22:50:07.735Z,34.00
2023-01-22T22:55:05.547Z,33.30
2023-01-22T23:00:06.734Z,34.38
2023-01-22T23:05:04.580Z,33.53
2023-01-22T23:10:05.361Z,29.70
2023-01-22T23:15:03.548Z,30.30
2023-01-22T23:20:01.130Z,28.95
2023-01-22T23:24:59.069Z,35.58
2023-01-22T23:29:56.616Z,34.15
2023-01-22T23:34:53.895Z,30.38
2023-01-22T23:39:51.893Z,28.85
2023-01-22T23:44:49.352Z,30.40
2023-01-22T23:49:46.679Z,32.80
2023-01-22T23:54:44.050Z,30.30
2023-01-22T23:59:44.712Z,30.40
